Time;durP1;ratioP1;P1;durP2;ratioP2;P2;SDS_P1;SDS_P2;PMS_P1;PMS_P2;Temp;Humidity;BMP_temperature;BMP_pressure;BME280_temperature;BME280_humidity;BME280_pressure;Samples;Min_cycle;Max_cycle;Signal;HPM_P1;HPM_P2
2022/11/28 00:00:35;;;;;;;9.90;3.80;;;;;;;;;;4989342;28;20293;-71
2022/11/28 00:03:00;;;;;;;9.05;4.68;;;;;;;;;;4986222;28;20408;-70
2022/11/28 00:05:25;;;;;;;12.37;5.03;;;;;;;;;;4983706;28;20549;-70
2022/11/28 00:07:50;;;;;;;7.97;5.17;;;;;;;;;;4986385;28;20277;-70
2022/11/28 00:10:15;;;;;;;9.43;3.03;;;;;;;;;;4987885;28;20926;-71
2022/11/28 00:12:41;;;;;;;18.70;3.75;;;;;;;;;;4993106;28;20473;-71
2022/11/28 00:15:06;;;;;;;10.52;4.05;;;;;;;;;;4989672;28;20026;-71
2022/11/28 00:17:31;;;;;;;8.43;4.45;;;;;;;;;;4990803;28;20022;-71
2022/11/28 00:19:57;;;;;;;11.10;3.40;;;;;;;;;;4991570;28;20370;-71
2022/11/28 00:22:22;;;;;;;8.10;4.95;;;;;;;;;;4986752;28;20018;-72
2022/11/28 00:24:47;;;;;;;12.93;4.97;;;;;;;;;;4994841;28;20023;-70
2022/11/28 00:27:12;;;;;;;11.70;3.65;;;;;;;;;;4988825;28;20024;-71
2022/11/28 00:29:38;;;;;;;8.37;4.73;;;;;;;;;;4988896;28;20170;-72
2022/11/28 00:32:03;;;;;;;9.40;3.38;;;;;;;;;;4980377;28;20349;-72
2022/11/28 00:34:28;;;;;;;3.50;2.10;;;;;;;;;;4985377;28;20037;-71
2022/11/28 00:36:54;;;;;;;9.82;5.45;;;;;;;;;;4980617;28;20022;-70
2022/11/28 00:39:19;;;;;;;10.63;5.10;;;;;;;;;;4982526;28;20787;-71
2022/11/28 00:41:44;;;;;;;13.90;3.40;;;;;;;;;;4980398;28;20289;-70
2022/11/28 00:44:10;;;;;;;6.68;3.78;;;;;;;;;;4976558;28;20301;-71
2022/11/28 00:46:35;;;;;;;6.72;3.08;;;;;;;;;;4980396;28;20036;-71
2022/11/28 00:49:00;;;;;;;8.45;3.78;;;;;;;;;;4983053;28;20023;-73
2022/11/28 00:51:29;;;;;;;11.87;4.97;;;;;;;;;;4981133;28;20545;-74
2022/11/28 00:53:56;;;;;;;13.85;4.72;;;;;;;;;;4984330;28;20281;-71
2022/11/28 00:56:22;;;;;;;8.82;4.40;;;;;;;;;;4980910;28;20027;-71
2022/11/28 00:58:48;;;;;;;11.57;5.13;;;;;;;;;;4986575;28;20049;-71
2022/11/28 01:01:21;;;;;;;6.82;3.22;;;;;;;;;;4980041;28;20027;-70
2022/11/28 01:03:47;;;;;;;12.52;6.07;;;;;;;;;;4984626;28;20022;-71
2022/11/28 01:06:18;;;;;;;9.10;3.47;;;;;;;;;;4988221;28;20076;-71
2022/11/28 01:08:43;;;;;;;15.43;4.80;;;;;;;;;;4989393;28;20407;-70
2022/11/28 01:11:10;;;;;;;5.35;2.83;;;;;;;;;;4987812;28;20029;-71
2022/11/28 01:13:36;;;;;;;8.45;3.10;;;;;;;;;;4979665;28;20365;-70
2022/11/28 01:16:01;;;;;;;5.83;3.17;;;;;;;;;;4980130;28;20042;-70
2022/11/28 01:18:26;;;;;;;9.65;4.50;;;;;;;;;;4985154;28;20286;-71
2022/11/28 01:20:51;;;;;;;8.60;4.43;;;;;;;;;;4988395;28;20371;-71
2022/11/28 01:23:18;;;;;;;8.77;4.37;;;;;;;;;;4991313;28;20285;-70
2022/11/28 01:25:43;;;;;;;4.80;3.45;;;;;;;;;;4989026;28;20360;-73
2022/11/28 01:28:08;;;;;;;10.15;3.97;;;;;;;;;;4990947;28;20058;-70
2022/11/28 01:30:33;;;;;;;9.63;3.80;;;;;;;;;;4990000;28;20041;-71
2022/11/28 01:32:58;;;;;;;8.40;4.35;;;;;;;;;;4992750;28;20350;-71
2022/11/28 01:35:23;;;;;;;9.87;5.00;;;;;;;;;;4990655;28;20046;-71
2022/11/28 01:37:49;;;;;;;9.67;5.30;;;;;;;;;;4997944;28;20278;-71
2022/11/28 01:40:14;;;;;;;7.17;4.30;;;;;;;;;;4990007;28;20371;-71
2022/11/28 01:42:39;;;;;;;8.23;3.35;;;;;;;;;;4997116;28;20281;-70
2022/11/28 01:45:06;;;;;;;12.93;3.73;;;;;;;;;;4999632;28;20492;-70
2022/11/28 01:47:32;;;;;;;11.15;5.47;;;;;;;;;;4995682;28;20284;-71
2022/11/28 01:49:59;;;;;;;11.48;3.95;;;;;;;;;;4995364;28;20034;-70
2022/11/28 01:52:24;;;;;;;11.73;5.95;;;;;;;;;;4983959;28;20022;-70
2022/11/28 01:54:52;;;;;;;4.18;2.78;;;;;;;;;;4982259;28;20041;-72
2022/11/28 01:57:18;;;;;;;8.80;4.25;;;;;;;;;;4986645;28;20407;-70
2022/11/28 02:00:04;;;;;;;12.05;6.70;;;;;;;;;;4983629;28;20446;-72
2022/11/28 02:02:34;;;;;;;10.88;3.78;;;;;;;;;;4987657;28;20117;-70
2022/11/28 02:04:59;;;;;;;12.82;6.22;;;;;;;;;;4984452;28;20378;-71
2022/11/28 02:07:25;;;;;;;9.20;4.60;;;;;;;;;;4986089;28;20022;-70
2022/11/28 02:09:50;;;;;;;11.32;7.15;;;;;;;;;;4987392;28;20085;-70
2022/11/28 02:12:39;;;;;;;9.07;3.97;;;;;;;;;;4987059;28;20026;-70
2022/11/28 02:15:16;;;;;;;17.63;7.60;;;;;;;;;;4983792;28;20287;-72
2022/11/28 02:17:59;;;;;;;10.82;6.05;;;;;;;;;;4984728;28;20036;-71
2022/11/28 02:20:43;;;;;;;11.23;5.70;;;;;;;;;;4983219;28;20142;-71
2022/11/28 02:23:11;;;;;;;9.10;5.60;;;;;;;;;;4986239;28;20109;-72
2022/11/28 02:25:52;;;;;;;13.70;5.63;;;;;;;;;;4988537;28;20072;-72
2022/11/28 02:28:36;;;;;;;12.98;4.45;;;;;;;;;;4986094;28;20030;-70
2022/11/28 02:31:16;;;;;;;5.22;2.90;;;;;;;;;;4983109;28;20429;-70
2022/11/28 02:33:41;;;;;;;;;;;;;;;;;;4981850;28;20105;-70
2022/11/28 02:36:25;;;;;;;8.50;3.80;;;;;;;;;;4983697;28;20009;-70
2022/11/28 02:38:56;;;;;;;7.05;3.47;;;;;;;;;;4983124;28;20304;-71
2022/11/28 02:41:30;;;;;;;9.43;4.20;;;;;;;;;;4987286;28;20018;-70
2022/11/28 02:44:01;;;;;;;8.73;3.78;;;;;;;;;;4980741;28;20042;-70
2022/11/28 02:46:26;;;;;;;7.55;4.68;;;;;;;;;;4982725;28;20026;-70
2022/11/28 02:48:53;;;;;;;7.13;3.75;;;;;;;;;;4987201;28;20777;-70
2022/11/28 02:51:25;;;;;;;10.15;4.53;;;;;;;;;;4988941;28;20042;-70
2022/11/28 02:53:51;;;;;;;11.32;5.68;;;;;;;;;;4982041;28;20026;-70
2022/11/28 02:56:16;;;;;;;8.48;5.20;;;;;;;;;;4982083;28;21694;-70
2022/11/28 02:58:42;;;;;;;11.82;5.55;;;;;;;;;;4981414;28;20022;-72
2022/11/28 03:01:14;;;;;;;10.88;4.90;;;;;;;;;;4980589;28;20104;-71
2022/11/28 03:03:48;;;;;;;7.43;4.93;;;;;;;;;;4982508;28;20031;-71
2022/11/28 03:06:14;;;;;;;10.95;5.18;;;;;;;;;;4995821;28;20018;-71
2022/11/28 03:08:46;;;;;;;11.32;4.60;;;;;;;;;;4990279;28;20089;-71
2022/11/28 03:11:17;;;;;;;9.57;3.85;;;;;;;;;;4986334;28;20070;-71
2022/11/28 03:13:55;;;;;;;6.35;3.47;;;;;;;;;;4985872;28;20050;-72
2022/11/28 03:16:20;;;;;;;4.57;2.63;;;;;;;;;;4986756;28;20060;-71
2022/11/28 03:18:54;;;;;;;12.32;4.05;;;;;;;;;;4982912;28;20505;-71
2022/11/28 03:21:29;;;;;;;5.07;2.40;;;;;;;;;;4981909;28;20692;-72
2022/11/28 03:24:00;;;;;;;8.02;4.40;;;;;;;;;;4981915;28;20011;-71
2022/11/28 03:26:29;;;;;;;13.02;5.22;;;;;;;;;;4981810;28;20030;-71
2022/11/28 03:28:59;;;;;;;8.83;4.37;;;;;;;;;;4981858;28;20105;-72
2022/11/28 03:31:24;;;;;;;;;;;;;;;;;;4981175;28;20277;-73
2022/11/28 03:33:52;;;;;;;10.80;5.53;;;;;;;;;;4982473;28;19917;-71
2022/11/28 03:36:24;;;;;;;10.90;5.82;;;;;;;;;;4987755;28;20399;-71
2022/11/28 03:38:53;;;;;;;10.30;5.68;;;;;;;;;;4987980;28;20042;-71
2022/11/28 03:41:23;;;;;;;11.10;5.22;;;;;;;;;;4983946;28;21596;-74
2022/11/28 03:43:51;;;;;;;9.40;5.20;;;;;;;;;;4980570;28;20062;-72
2022/11/28 03:46:19;;;;;;;14.70;6.50;;;;;;;;;;4982440;28;20022;-71
2022/11/28 03:48:46;;;;;;;15.77;6.82;;;;;;;;;;4983076;28;20025;-71
2022/11/28 03:51:14;;;;;;;6.78;3.60;;;;;;;;;;4981967;28;20107;-73
2022/11/28 03:53:45;;;;;;;8.30;4.20;;;;;;;;;;4989805;28;20022;-71
2022/11/28 03:56:13;;;;;;;10.77;5.03;;;;;;;;;;4982058;28;20632;-71
2022/11/28 03:59:01;;;;;;;8.25;4.55;;;;;;;;;;4980488;28;20049;-71
2022/11/28 04:01:29;;;;;;;15.57;5.32;;;;;;;;;;4968510;28;20039;-71
2022/11/28 04:04:06;;;;;;;10.32;4.68;;;;;;;;;;4982851;28;20094;-71
2022/11/28 04:06:39;;;;;;;8.25;4.38;;;;;;;;;;4979741;28;20022;-71
2022/11/28 04:09:06;;;;;;;11.02;5.22;;;;;;;;;;4983833;28;20027;-72
2022/11/28 04:11:39;;;;;;;12.00;6.20;;;;;;;;;;4976102;28;20026;-71
2022/11/28 04:14:14;;;;;;;9.40;3.35;;;;;;;;;;4980811;28;20033;-71
2022/11/28 04:16:49;;;;;;;9.68;5.35;;;;;;;;;;4980859;28;20030;-71
2022/11/28 04:19:34;;;;;;;14.80;5.45;;;;;;;;;;4981885;28;20022;-71
2022/11/28 04:22:02;;;;;;;8.07;3.67;;;;;;;;;;4985441;28;20109;-71
2022/11/28 04:24:30;;;;;;;6.80;3.92;;;;;;;;;;4980446;28;20034;-71
2022/11/28 04:26:58;;;;;;;18.48;6.28;;;;;;;;;;4980827;28;20106;-74
2022/11/28 04:29:24;;;;;;;9.13;3.63;;;;;;;;;;4990000;28;20442;-73
2022/11/28 04:31:51;;;;;;;7.72;4.05;;;;;;;;;;4979907;28;20129;-72
2022/11/28 04:34:17;;;;;;;11.63;4.00;;;;;;;;;;4984316;28;20018;-72
2022/11/28 04:36:44;;;;;;;14.43;5.47;;;;;;;;;;4981257;28;20031;-72
2022/11/28 04:39:13;;;;;;;7.90;2.95;;;;;;;;;;4982256;28;20229;-71
2022/11/28 04:41:40;;;;;;;16.83;6.07;;;;;;;;;;4981347;28;20471;-72
2022/11/28 04:44:11;;;;;;;10.82;5.88;;;;;;;;;;4986666;28;20026;-72
2022/11/28 04:46:38;;;;;;;12.48;6.03;;;;;;;;;;4979324;28;20025;-72
2022/11/28 04:49:03;;;;;;;8.65;4.40;;;;;;;;;;4979193;28;20038;-73
2022/11/28 04:51:58;;;;;;;19.00;6.75;;;;;;;;;;4982932;28;20018;-72
2022/11/28 04:54:51;;;;;;;14.18;5.80;;;;;;;;;;4937544;28;20110;-72
2022/11/28 04:57:20;;;;;;;10.18;5.07;;;;;;;;;;4984426;28;20446;-71
2022/11/28 04:59:46;;;;;;;10.25;4.55;;;;;;;;;;4978580;28;20022;-71
2022/11/28 05:02:12;;;;;;;15.23;7.20;;;;;;;;;;4986005;28;20025;-73
2022/11/28 05:04:37;;;;;;;15.38;6.07;;;;;;;;;;5012853;22;20052;-70
2022/11/28 05:07:06;;;;;;;6.90;3.38;;;;;;;;;;5002737;28;20382;-71
2022/11/28 05:09:32;;;;;;;8.10;4.15;;;;;;;;;;5006772;28;20133;-70
2022/11/28 05:11:57;;;;;;;14.77;5.07;;;;;;;;;;5005572;28;20484;-70
2022/11/28 05:14:22;;;;;;;11.30;4.90;;;;;;;;;;5002885;28;20029;-73
2022/11/28 05:16:48;;;;;;;10.40;4.30;;;;;;;;;;5005200;28;20390;-70
2022/11/28 05:19:13;;;;;;;14.57;5.13;;;;;;;;;;5000416;28;20041;-71
2022/11/28 05:21:38;;;;;;;12.38;5.57;;;;;;;;;;5000664;28;20075;-70
2022/11/28 05:24:03;;;;;;;7.23;4.67;;;;;;;;;;5000486;28;20022;-73
2022/11/28 05:26:31;;;;;;;17.10;5.85;;;;;;;;;;5000701;28;20300;-73
2022/11/28 05:28:56;;;;;;;10.75;4.35;;;;;;;;;;5001745;28;20018;-70
2022/11/28 05:31:22;;;;;;;8.13;3.58;;;;;;;;;;5004157;28;20029;-70
2022/11/28 05:33:47;;;;;;;8.65;3.88;;;;;;;;;;5001082;28;20080;-74
2022/11/28 05:36:12;;;;;;;6.32;3.70;;;;;;;;;;4998886;28;20084;-73
2022/11/28 05:38:38;;;;;;;10.52;5.80;;;;;;;;;;4997449;28;20019;-70
2022/11/28 05:41:03;;;;;;;20.63;6.05;;;;;;;;;;4999059;28;20032;-74
2022/11/28 05:43:28;;;;;;;3.20;2.45;;;;;;;;;;4999631;28;20228;-70
2022/11/28 05:45:54;;;;;;;6.45;3.85;;;;;;;;;;4999251;28;20100;-73
2022/11/28 05:48:20;;;;;;;6.82;3.33;;;;;;;;;;4999205;28;20029;-70
2022/11/28 05:50:45;;;;;;;7.13;3.67;;;;;;;;;;5003075;28;20390;-70
2022/11/28 05:53:10;;;;;;;10.37;5.23;;;;;;;;;;5002866;28;20025;-73
2022/11/28 05:55:39;;;;;;;14.38;5.90;;;;;;;;;;5004445;28;20828;-70
2022/11/28 05:58:04;;;;;;;11.45;5.25;;;;;;;;;;5003242;28;20026;-76
2022/11/28 06:00:29;;;;;;;5.57;3.63;;;;;;;;;;5002718;28;20500;-71
2022/11/28 06:02:55;;;;;;;15.35;5.60;;;;;;;;;;4999837;28;20022;-73
2022/11/28 06:05:20;;;;;;;13.25;6.78;;;;;;;;;;5001311;28;20486;-70
2022/11/28 06:07:45;;;;;;;8.73;3.93;;;;;;;;;;4997133;28;20667;-74
2022/11/28 06:10:10;;;;;;;11.00;3.83;;;;;;;;;;5000050;28;20289;-73
2022/11/28 06:12:35;;;;;;;6.35;3.28;;;;;;;;;;4998413;28;20724;-72
2022/11/28 06:15:00;;;;;;;9.48;4.75;;;;;;;;;;5001535;28;20112;-72
2022/11/28 06:17:26;;;;;;;13.93;5.70;;;;;;;;;;5001740;28;20029;-73
2022/11/28 06:19:51;;;;;;;10.55;4.75;;;;;;;;;;5000314;28;20879;-70
2022/11/28 06:22:16;;;;;;;8.53;4.50;;;;;;;;;;5004882;28;20018;-71
2022/11/28 06:24:41;;;;;;;8.40;4.10;;;;;;;;;;4998893;28;20304;-73
2022/11/28 06:27:06;;;;;;;14.23;6.33;;;;;;;;;;5002190;28;20046;-70
2022/11/28 06:29:32;;;;;;;8.33;4.70;;;;;;;;;;5000533;28;20285;-70
2022/11/28 06:31:57;;;;;;;14.75;5.68;;;;;;;;;;5006494;28;20411;-73
2022/11/28 06:34:22;;;;;;;9.87;4.83;;;;;;;;;;4997469;28;20107;-72
2022/11/28 06:36:47;;;;;;;11.18;4.82;;;;;;;;;;5000466;28;20281;-71
2022/11/28 06:39:14;;;;;;;7.88;3.83;;;;;;;;;;5005718;28;20046;-73
2022/11/28 06:41:39;;;;;;;7.93;4.95;;;;;;;;;;5001969;28;20254;-73
2022/11/28 06:44:04;;;;;;;11.82;6.13;;;;;;;;;;5005118;28;20026;-70
2022/11/28 06:46:30;;;;;;;9.93;3.38;;;;;;;;;;5010659;28;20022;-73
2022/11/28 06:48:55;;;;;;;11.00;5.70;;;;;;;;;;5006345;28;20479;-70
2022/11/28 06:51:20;;;;;;;13.02;5.47;;;;;;;;;;5006204;28;20281;-72
2022/11/28 06:53:45;;;;;;;9.80;5.70;;;;;;;;;;5001598;28;20022;-70
2022/11/28 06:56:12;;;;;;;4.82;3.45;;;;;;;;;;5001586;28;20024;-70
2022/11/28 06:58:38;;;;;;;10.50;5.43;;;;;;;;;;5000669;28;20026;-73
2022/11/28 07:01:11;;;;;;;13.45;7.13;;;;;;;;;;5009406;28;20022;-70
2022/11/28 07:03:37;;;;;;;17.13;5.93;;;;;;;;;;5001243;28;20023;-70
2022/11/28 07:06:02;;;;;;;14.88;5.70;;;;;;;;;;5006495;28;20033;-73
2022/11/28 07:08:28;;;;;;;14.40;7.72;;;;;;;;;;5003916;28;20030;-71
2022/11/28 07:10:56;;;;;;;6.85;4.30;;;;;;;;;;5000036;28;20029;-74
2022/11/28 07:13:21;;;;;;;9.63;5.75;;;;;;;;;;4998596;28;20025;-71
2022/11/28 07:15:47;;;;;;;10.57;5.10;;;;;;;;;;5005162;28;20040;-70
2022/11/28 07:18:12;;;;;;;4.70;2.97;;;;;;;;;;5009133;28;20026;-69
2022/11/28 07:20:37;;;;;;;10.57;5.93;;;;;;;;;;5009171;28;20045;-70
2022/11/28 07:23:02;;;;;;;15.38;4.47;;;;;;;;;;5000686;28;20276;-70
2022/11/28 07:25:28;;;;;;;11.80;5.13;;;;;;;;;;5005685;28;20528;-74
2022/11/28 07:27:53;;;;;;;6.45;3.53;;;;;;;;;;5004433;28;20293;-69
2022/11/28 07:30:19;;;;;;;15.07;6.53;;;;;;;;;;5005557;28;20040;-73
2022/11/28 07:32:45;;;;;;;9.25;4.95;;;;;;;;;;5003994;28;20284;-71
2022/11/28 07:35:11;;;;;;;8.23;4.72;;;;;;;;;;5002928;28;20045;-71
2022/11/28 07:37:36;;;;;;;18.85;6.63;;;;;;;;;;5002283;28;20022;-71
2022/11/28 07:40:01;;;;;;;16.45;8.30;;;;;;;;;;5002919;28;20076;-71
2022/11/28 07:42:26;;;;;;;16.40;6.75;;;;;;;;;;5005993;28;20025;-71
2022/11/28 07:44:51;;;;;;;10.38;5.13;;;;;;;;;;5001934;28;20161;-71
2022/11/28 07:47:17;;;;;;;11.57;4.53;;;;;;;;;;5009397;28;20050;-71
2022/11/28 07:49:42;;;;;;;9.90;5.27;;;;;;;;;;5008906;28;20471;-72
2022/11/28 07:52:07;;;;;;;9.50;4.80;;;;;;;;;;5010078;28;21807;-72
2022/11/28 07:54:32;;;;;;;11.38;5.22;;;;;;;;;;5003160;28;20284;-71
2022/11/28 07:56:57;;;;;;;11.13;5.93;;;;;;;;;;5004923;28;20022;-71
2022/11/28 07:59:22;;;;;;;15.00;7.03;;;;;;;;;;4999044;28;20909;-72
2022/11/28 08:01:48;;;;;;;11.43;4.77;;;;;;;;;;5004918;28;20265;-71
2022/11/28 08:04:13;;;;;;;10.68;4.03;;;;;;;;;;4999683;28;20884;-72
2022/11/28 08:06:39;;;;;;;10.03;5.23;;;;;;;;;;5008309;28;20032;-71
2022/11/28 08:09:05;;;;;;;6.47;3.30;;;;;;;;;;5006895;28;20646;-71
2022/11/28 08:11:31;;;;;;;11.10;3.95;;;;;;;;;;4998397;28;20088;-71
2022/11/28 08:13:56;;;;;;;16.50;6.65;;;;;;;;;;5001835;28;20025;-71
2022/11/28 08:16:22;;;;;;;12.38;6.20;;;;;;;;;;5004364;28;20034;-71
2022/11/28 08:18:48;;;;;;;8.90;3.30;;;;;;;;;;5004830;28;20010;-70
2022/11/28 08:21:15;;;;;;;9.02;3.63;;;;;;;;;;5004704;28;20026;-71
2022/11/28 08:23:40;;;;;;;6.65;3.58;;;;;;;;;;5003208;28;20037;-71
2022/11/28 08:26:07;;;;;;;7.80;4.93;;;;;;;;;;5006270;28;20010;-72
2022/11/28 08:28:32;;;;;;;8.05;3.60;;;;;;;;;;5004552;28;20041;-71
2022/11/28 08:31:00;;;;;;;16.00;6.00;;;;;;;;;;4996953;28;20021;-71
2022/11/28 08:33:25;;;;;;;7.60;4.32;;;;;;;;;;4999480;28;20603;-70
2022/11/28 08:35:50;;;;;;;12.75;6.40;;;;;;;;;;5003677;28;20057;-71
2022/11/28 08:38:16;;;;;;;7.57;4.20;;;;;;;;;;5006474;28;20061;-71
2022/11/28 08:40:41;;;;;;;15.15;4.80;;;;;;;;;;5007008;28;20104;-71
2022/11/28 08:43:06;;;;;;;8.87;3.07;;;;;;;;;;5002713;28;20021;-71
2022/11/28 08:45:33;;;;;;;10.48;5.00;;;;;;;;;;4998193;28;20276;-71
2022/11/28 08:47:58;;;;;;;11.23;6.28;;;;;;;;;;5005761;28;20023;-71
2022/11/28 08:50:23;;;;;;;21.85;4.72;;;;;;;;;;5003215;28;20030;-70
2022/11/28 08:52:49;;;;;;;11.55;5.75;;;;;;;;;;5003973;28;20473;-71
2022/11/28 08:55:14;;;;;;;6.03;3.80;;;;;;;;;;4999722;28;20111;-71
2022/11/28 08:57:39;;;;;;;10.00;3.58;;;;;;;;;;5000793;28;20018;-70
2022/11/28 09:00:05;;;;;;;9.43;3.72;;;;;;;;;;5003264;28;20026;-71
2022/11/28 09:02:30;;;;;;;11.40;5.03;;;;;;;;;;5003269;28;20367;-72
2022/11/28 09:04:55;;;;;;;7.82;4.00;;;;;;;;;;5004814;28;20030;-70
2022/11/28 09:07:20;;;;;;;8.90;4.27;;;;;;;;;;5004028;28;20468;-71
2022/11/28 09:09:45;;;;;;;11.95;5.65;;;;;;;;;;5006577;28;20388;-70
2022/11/28 09:12:10;;;;;;;18.63;6.70;;;;;;;;;;5000145;28;20052;-72
2022/11/28 09:14:36;;;;;;;4.80;2.67;;;;;;;;;;5006210;28;20292;-70
2022/11/28 09:17:01;;;;;;;4.63;3.05;;;;;;;;;;5002247;28;20123;-70
2022/11/28 09:19:27;;;;;;;8.40;3.87;;;;;;;;;;5001834;28;20101;-71
2022/11/28 09:21:52;;;;;;;12.27;4.77;;;;;;;;;;5001830;28;20300;-70
2022/11/28 09:24:17;;;;;;;14.48;6.50;;;;;;;;;;5004240;28;20285;-72
2022/11/28 09:26:42;;;;;;;10.60;5.65;;;;;;;;;;5007740;28;20015;-70
2022/11/28 09:29:07;;;;;;;7.57;3.50;;;;;;;;;;5007522;28;20359;-71
2022/11/28 09:31:33;;;;;;;8.93;3.97;;;;;;;;;;5001716;28;20470;-70
2022/11/28 09:33:58;;;;;;;15.68;7.03;;;;;;;;;;5005176;28;20026;-70
2022/11/28 09:36:23;;;;;;;11.65;5.35;;;;;;;;;;5003119;28;20160;-70
2022/11/28 09:38:48;;;;;;;14.20;6.50;;;;;;;;;;5003354;28;20022;-71
2022/11/28 09:41:32;;;;;;;8.38;4.03;;;;;;;;;;5001983;28;20110;-71
2022/11/28 09:44:01;;;;;;;6.55;3.25;;;;;;;;;;5003479;28;20105;-70
2022/11/28 09:46:28;;;;;;;17.02;6.53;;;;;;;;;;5008505;28;20467;-71
2022/11/28 09:48:56;;;;;;;7.97;3.33;;;;;;;;;;5004524;28;20026;-70
2022/11/28 09:51:24;;;;;;;10.02;5.03;;;;;;;;;;5003680;28;20097;-70
2022/11/28 09:53:52;;;;;;;6.70;2.72;;;;;;;;;;5001819;28;20026;-70
2022/11/28 09:56:20;;;;;;;11.10;5.53;;;;;;;;;;5005817;28;20021;-71
2022/11/28 09:58:48;;;;;;;7.93;3.72;;;;;;;;;;5011894;28;20118;-71
2022/11/28 10:01:25;;;;;;;15.95;7.78;;;;;;;;;;5009792;28;20022;-69
2022/11/28 10:04:05;;;;;;;16.42;7.70;;;;;;;;;;5010057;28;20026;-70
2022/11/28 10:06:34;;;;;;;13.90;7.35;;;;;;;;;;5007771;28;20030;-69
2022/11/28 10:09:18;;;;;;;13.25;7.18;;;;;;;;;;5008414;28;20021;-69
2022/11/28 10:11:47;;;;;;;13.43;6.18;;;;;;;;;;5013334;28;20485;-70
2022/11/28 10:14:31;;;;;;;14.43;5.87;;;;;;;;;;5011343;28;20375;-70
2022/11/28 10:17:15;;;;;;;15.15;4.53;;;;;;;;;;5015717;28;20022;-70
2022/11/28 10:19:44;;;;;;;6.38;3.22;;;;;;;;;;5003183;28;20022;-70
2022/11/28 10:22:12;;;;;;;8.35;3.72;;;;;;;;;;5007216;28;20033;-69
2022/11/28 10:24:39;;;;;;;10.60;4.53;;;;;;;;;;5008894;28;20029;-69
2022/11/28 10:27:06;;;;;;;13.25;5.95;;;;;;;;;;5010414;28;20083;-70
2022/11/28 10:29:37;;;;;;;7.28;3.80;;;;;;;;;;5008300;28;20037;-70
2022/11/28 10:32:03;;;;;;;10.30;4.07;;;;;;;;;;5001815;28;20022;-69
2022/11/28 10:34:50;;;;;;;7.38;4.05;;;;;;;;;;5004253;28;20030;-70
2022/11/28 10:37:25;;;;;;;11.25;5.88;;;;;;;;;;5005838;28;20022;-70
2022/11/28 10:39:51;;;;;;;13.48;5.78;;;;;;;;;;5007678;28;20136;-70
2022/11/28 10:42:35;;;;;;;16.98;5.80;;;;;;;;;;5007475;28;20050;-69
2022/11/28 10:45:17;;;;;;;11.73;4.40;;;;;;;;;;5011899;28;20478;-70
2022/11/28 10:47:42;;;;;;;11.65;5.70;;;;;;;;;;5009544;28;20014;-69
2022/11/28 10:50:27;;;;;;;9.63;5.13;;;;;;;;;;5004460;28;20040;-70
2022/11/28 10:53:11;;;;;;;13.07;6.43;;;;;;;;;;5004222;28;20285;-70
2022/11/28 10:55:55;;;;;;;12.15;5.85;;;;;;;;;;5011017;28;20030;-70
2022/11/28 10:58:22;;;;;;;5.65;3.35;;;;;;;;;;5009437;28;20083;-71
2022/11/28 11:00:50;;;;;;;14.68;6.00;;;;;;;;;;5012124;28;20033;-69
2022/11/28 11:03:16;;;;;;;16.55;6.30;;;;;;;;;;5009445;28;20105;-70
2022/11/28 11:05:41;;;;;;;13.00;4.63;;;;;;;;;;5033905;22;20141;-71
2022/11/28 11:08:20;;;;;;;13.15;7.07;;;;;;;;;;5007370;28;20228;-71
2022/11/28 11:10:50;;;;;;;14.50;6.20;;;;;;;;;;5008860;28;20509;-71
2022/11/28 11:13:20;;;;;;;17.00;6.65;;;;;;;;;;5003557;28;20501;-71
2022/11/28 11:15:48;;;;;;;13.30;4.88;;;;;;;;;;5005904;28;20468;-72
2022/11/28 11:18:30;;;;;;;8.88;4.35;;;;;;;;;;5005039;28;20081;-71
2022/11/28 11:21:06;;;;;;;12.23;6.65;;;;;;;;;;5002681;28;20033;-72
2022/11/28 11:23:31;;;;;;;14.63;6.15;;;;;;;;;;5003334;28;20022;-72
2022/11/28 11:25:57;;;;;;;6.15;3.60;;;;;;;;;;4999637;28;20363;-72
2022/11/28 11:28:28;;;;;;;8.68;4.30;;;;;;;;;;5002494;28;20022;-71
2022/11/28 11:31:04;;;;;;;14.40;5.55;;;;;;;;;;5006014;28;20454;-72
2022/11/28 11:33:32;;;;;;;7.68;4.38;;;;;;;;;;5001410;28;20053;-73
2022/11/28 11:35:57;;;;;;;7.63;4.57;;;;;;;;;;5006501;28;20267;-71
2022/11/28 11:38:27;;;;;;;7.55;4.03;;;;;;;;;;5007103;28;20026;-71
2022/11/28 11:40:52;;;;;;;13.75;6.68;;;;;;;;;;5003340;28;20053;-72
2022/11/28 11:43:20;;;;;;;14.65;5.45;;;;;;;;;;5001666;28;20060;-72
2022/11/28 11:45:45;;;;;;;8.48;3.78;;;;;;;;;;5005325;28;20029;-71
2022/11/28 11:48:11;;;;;;;16.33;7.07;;;;;;;;;;5007370;28;20014;-72
2022/11/28 11:50:37;;;;;;;9.70;3.60;;;;;;;;;;5007873;28;20307;-74
2022/11/28 11:53:06;;;;;;;16.20;4.68;;;;;;;;;;5007011;28;20377;-72
2022/11/28 11:55:34;;;;;;;14.38;5.22;;;;;;;;;;4998123;28;20434;-72
2022/11/28 11:58:01;;;;;;;10.98;5.85;;;;;;;;;;5001536;28;20036;-72
2022/11/28 12:00:33;;;;;;;13.93;7.40;;;;;;;;;;5008053;28;20080;-71
2022/11/28 12:02:59;;;;;;;12.32;5.43;;;;;;;;;;5003076;28;20025;-72
2022/11/28 12:05:30;;;;;;;18.13;8.25;;;;;;;;;;4998787;28;20036;-72
2022/11/28 12:07:55;;;;;;;12.85;6.75;;;;;;;;;;5002074;28;20032;-72
2022/11/28 12:10:22;;;;;;;23.27;9.00;;;;;;;;;;5008339;28;20108;-72
2022/11/28 12:12:48;;;;;;;12.35;4.85;;;;;;;;;;5001877;28;20679;-72
2022/11/28 12:15:19;;;;;;;8.98;4.75;;;;;;;;;;5003249;28;20022;-72
2022/11/28 12:17:50;;;;;;;8.38;4.43;;;;;;;;;;4996848;28;20033;-72
2022/11/28 12:20:34;;;;;;;19.48;8.27;;;;;;;;;;5000883;28;20034;-74
2022/11/28 12:23:03;;;;;;;22.13;8.13;;;;;;;;;;5004101;28;21040;-72
2022/11/28 12:25:37;;;;;;;8.63;4.75;;;;;;;;;;5006128;28;20068;-73
2022/11/28 12:28:26;;;;;;;19.35;10.30;;;;;;;;;;5000841;28;20063;-73
2022/11/28 12:31:07;;;;;;;14.90;7.78;;;;;;;;;;5006611;28;20633;-72
2022/11/28 12:33:35;;;;;;;16.45;9.15;;;;;;;;;;4999244;28;20037;-73
2022/11/28 12:36:03;;;;;;;19.48;7.57;;;;;;;;;;4998161;28;20030;-72
2022/11/28 12:38:47;;;;;;;10.93;5.78;;;;;;;;;;5005567;28;20053;-73
2022/11/28 12:41:30;;;;;;;18.77;7.47;;;;;;;;;;5002596;28;20018;-72
2022/11/28 12:43:55;;;;;;;21.25;8.35;;;;;;;;;;5003952;28;20026;-73
2022/11/28 12:46:20;;;;;;;14.35;7.28;;;;;;;;;;5003320;28;20033;-72
2022/11/28 12:49:04;;;;;;;13.82;7.55;;;;;;;;;;5002099;28;20281;-73
2022/11/28 12:51:32;;;;;;;17.30;8.75;;;;;;;;;;5002690;28;20276;-73
2022/11/28 12:53:57;;;;;;;22.85;8.15;;;;;;;;;;5006399;28;20030;-72
2022/11/28 12:56:43;;;;;;;17.10;8.03;;;;;;;;;;5007190;28;20032;-73
2022/11/28 12:59:18;;;;;;;19.13;8.07;;;;;;;;;;5005106;28;20293;-73
2022/11/28 13:01:53;;;;;;;15.88;6.43;;;;;;;;;;5003930;28;20013;-72
2022/11/28 13:04:25;;;;;;;18.30;9.30;;;;;;;;;;5001493;28;20027;-73
2022/11/28 13:06:50;;;;;;;24.42;10.15;;;;;;;;;;5004247;28;20030;-72
2022/11/28 13:09:30;;;;;;;18.70;9.40;;;;;;;;;;4998782;28;20029;-73
2022/11/28 13:11:55;;;;;;;;;;;;;;;;;;5005947;28;20757;-72
2022/11/28 13:14:28;;;;;;;16.63;8.20;;;;;;;;;;5008450;28;19916;-72
2022/11/28 13:16:55;;;;;;;20.65;7.60;;;;;;;;;;4997851;28;20289;-72
2022/11/28 13:19:26;;;;;;;13.73;6.53;;;;;;;;;;5003906;28;20033;-72
2022/11/28 13:22:00;;;;;;;11.55;5.53;;;;;;;;;;5003976;28;20075;-73
2022/11/28 13:24:40;;;;;;;14.35;4.60;;;;;;;;;;4999455;28;20095;-72
2022/11/28 13:27:10;;;;;;;17.17;8.55;;;;;;;;;;5001062;28;20754;-73
2022/11/28 13:29:36;;;;;;;19.23;8.95;;;;;;;;;;4997268;28;20728;-73
2022/11/28 13:32:14;;;;;;;15.80;8.95;;;;;;;;;;5004661;28;20141;-72
2022/11/28 13:34:40;;;;;;;23.83;9.85;;;;;;;;;;5007439;28;20018;-73
2022/11/28 13:37:26;;;;;;;17.10;8.77;;;;;;;;;;5004772;28;20518;-72
2022/11/28 13:40:06;;;;;;;20.33;9.40;;;;;;;;;;5009572;28;20026;-72
2022/11/28 13:42:41;;;;;;;7.63;3.78;;;;;;;;;;5008105;28;20030;-73
2022/11/28 13:45:19;;;;;;;13.98;6.63;;;;;;;;;;4999440;28;20060;-73
2022/11/28 13:47:44;;;;;;;19.30;9.02;;;;;;;;;;5009609;28;20024;-74
2022/11/28 13:50:22;;;;;;;13.87;7.33;;;;;;;;;;5002075;28;20424;-72
2022/11/28 13:53:05;;;;;;;7.40;3.83;;;;;;;;;;5000003;28;20265;-73
2022/11/28 13:55:43;;;;;;;18.13;6.63;;;;;;;;;;4995849;28;20394;-72
2022/11/28 13:58:29;;;;;;;15.73;6.78;;;;;;;;;;5004778;28;20036;-72
2022/11/28 14:00:59;;;;;;;13.90;6.57;;;;;;;;;;4975200;28;20410;-72
2022/11/28 14:03:24;;;;;;;12.95;6.95;;;;;;;;;;5005196;28;20115;-73
2022/11/28 14:05:53;;;;;;;28.00;9.18;;;;;;;;;;5009189;28;20068;-73
2022/11/28 14:08:31;;;;;;;16.05;7.38;;;;;;;;;;5007773;28;20080;-72
2022/11/28 14:11:06;;;;;;;19.08;8.45;;;;;;;;;;5003784;28;20026;-72
2022/11/28 14:13:51;;;;;;;16.80;8.57;;;;;;;;;;5006836;28;20037;-72
2022/11/28 14:16:25;;;;;;;13.75;6.75;;;;;;;;;;5005995;28;20071;-72
2022/11/28 14:18:58;;;;;;;15.98;8.43;;;;;;;;;;5005513;28;20022;-72
2022/11/28 14:21:31;;;;;;;20.13;8.68;;;;;;;;;;5008129;28;20550;-72
2022/11/28 14:24:02;;;;;;;15.40;7.68;;;;;;;;;;5000387;28;20466;-72
2022/11/28 14:26:35;;;;;;;15.13;7.80;;;;;;;;;;5009593;28;20096;-73
2022/11/28 14:29:02;;;;;;;15.25;8.23;;;;;;;;;;5005343;28;20050;-72
2022/11/28 14:31:32;;;;;;;18.25;9.25;;;;;;;;;;5006765;28;20039;-72
2022/11/28 14:33:58;;;;;;;28.58;11.02;;;;;;;;;;5007797;28;20441;-72
2022/11/28 14:36:24;;;;;;;19.05;9.73;;;;;;;;;;5011127;28;20522;-72
2022/11/28 14:38:59;;;;;;;20.77;10.23;;;;;;;;;;5006702;28;20056;-72
2022/11/28 14:41:24;;;;;;;25.25;9.88;;;;;;;;;;5003087;28;20351;-72
2022/11/28 14:43:51;;;;;;;18.37;9.87;;;;;;;;;;5006510;28;20026;-72
2022/11/28 14:46:24;;;;;;;17.25;7.53;;;;;;;;;;5005227;28;20280;-72